sensor_id;sensor_type;location;lat;lon;timestamp;P1;durP1;ratioP1;P2;durP2;ratioP2
11957;SDS011;6039;52.576;13.348;2022-09-17T00:00:36;6.47;;;2.97;;
11957;SDS011;6039;52.576;13.348;2022-09-17T00:05:41;6.83;;;2.27;;
11957;SDS011;6039;52.576;13.348;2022-09-17T00:10:48;7.77;;;2.63;;
11957;SDS011;6039;52.576;13.348;2022-09-17T00:15:52;7.97;;;2.80;;
11957;SDS011;6039;52.576;13.348;2022-09-17T00:20:56;7.90;;;2.77;;
11957;SDS011;6039;52.576;13.348;2022-09-17T00:26:06;8.80;;;3.40;;
11957;SDS011;6039;52.576;13.348;2022-09-17T00:31:10;4.50;;;2.87;;
11957;SDS011;6039;52.576;13.348;2022-09-17T00:36:14;8.40;;;3.13;;
11957;SDS011;6039;52.576;13.348;2022-09-17T00:41:22;11.57;;;3.03;;
11957;SDS011;6039;52.576;13.348;2022-09-17T00:46:30;12.13;;;3.53;;
11957;SDS011;6039;52.576;13.348;2022-09-17T00:51:38;12.90;;;3.27;;
11957;SDS011;6039;52.576;13.348;2022-09-17T00:56:48;11.63;;;3.07;;
11957;SDS011;6039;52.576;13.348;2022-09-17T01:01:53;10.20;;;3.07;;
11957;SDS011;6039;52.576;13.348;2022-09-17T01:07:00;7.20;;;3.00;;
11957;SDS011;6039;52.576;13.348;2022-09-17T01:12:26;8.10;;;3.20;;
11957;SDS011;6039;52.576;13.348;2022-09-17T01:17:46;12.87;;;2.80;;
11957;SDS011;6039;52.576;13.348;2022-09-17T01:23:02;7.33;;;3.03;;
11957;SDS011;6039;52.576;13.348;2022-09-17T01:28:31;7.60;;;3.10;;
11957;SDS011;6039;52.576;13.348;2022-09-17T01:33:43;8.73;;;2.90;;
11957;SDS011;6039;52.576;13.348;2022-09-17T01:38:56;9.63;;;3.53;;
11957;SDS011;6039;52.576;13.348;2022-09-17T01:44:06;11.37;;;3.63;;
11957;SDS011;6039;52.576;13.348;2022-09-17T01:49:18;9.53;;;2.87;;
11957;SDS011;6039;52.576;13.348;2022-09-17T01:54:25;8.73;;;2.80;;
11957;SDS011;6039;52.576;13.348;2022-09-17T01:59:32;8.17;;;3.20;;
11957;SDS011;6039;52.576;13.348;2022-09-17T02:04:42;9.30;;;3.17;;
11957;SDS011;6039;52.576;13.348;2022-09-17T02:09:49;9.23;;;3.43;;
11957;SDS011;6039;52.576;13.348;2022-09-17T02:14:59;9.70;;;3.33;;
11957;SDS011;6039;52.576;13.348;2022-09-17T02:20:07;9.27;;;3.40;;
11957;SDS011;6039;52.576;13.348;2022-09-17T02:25:14;12.20;;;3.90;;
11957;SDS011;6039;52.576;13.348;2022-09-17T02:30:22;14.63;;;3.60;;
11957;SDS011;6039;52.576;13.348;2022-09-17T02:35:29;11.57;;;3.37;;
11957;SDS011;6039;52.576;13.348;2022-09-17T02:40:34;11.97;;;3.73;;
11957;SDS011;6039;52.576;13.348;2022-09-17T02:45:44;13.77;;;4.30;;
11957;SDS011;6039;52.576;13.348;2022-09-17T02:50:58;16.60;;;4.20;;
11957;SDS011;6039;52.576;13.348;2022-09-17T02:56:23;15.67;;;4.83;;
11957;SDS011;6039;52.576;13.348;2022-09-17T03:01:34;16.30;;;4.67;;
11957;SDS011;6039;52.576;13.348;2022-09-17T03:06:44;10.20;;;4.03;;
11957;SDS011;6039;52.576;13.348;2022-09-17T03:11:49;14.50;;;4.33;;
11957;SDS011;6039;52.576;13.348;2022-09-17T03:16:53;12.90;;;4.10;;
11957;SDS011;6039;52.576;13.348;2022-09-17T03:22:00;10.77;;;4.40;;
11957;SDS011;6039;52.576;13.348;2022-09-17T03:27:04;17.77;;;4.10;;
11957;SDS011;6039;52.576;13.348;2022-09-17T03:32:08;11.47;;;3.90;;
11957;SDS011;6039;52.576;13.348;2022-09-17T03:37:15;11.23;;;3.40;;
11957;SDS011;6039;52.576;13.348;2022-09-17T03:42:20;14.53;;;3.83;;
11957;SDS011;6039;52.576;13.348;2022-09-17T03:47:24;8.20;;;3.30;;
11957;SDS011;6039;52.576;13.348;2022-09-17T03:52:31;16.03;;;3.90;;
11957;SDS011;6039;52.576;13.348;2022-09-17T03:57:35;11.13;;;3.47;;
11957;SDS011;6039;52.576;13.348;2022-09-17T04:02:39;14.30;;;3.87;;
11957;SDS011;6039;52.576;13.348;2022-09-17T04:07:46;14.83;;;3.63;;
11957;SDS011;6039;52.576;13.348;2022-09-17T04:12:50;12.33;;;3.57;;
11957;SDS011;6039;52.576;13.348;2022-09-17T04:17:54;16.20;;;4.27;;
11957;SDS011;6039;52.576;13.348;2022-09-17T04:23:02;10.20;;;3.40;;
11957;SDS011;6039;52.576;13.348;2022-09-17T04:28:06;17.37;;;3.60;;
11957;SDS011;6039;52.576;13.348;2022-09-17T04:33:10;13.13;;;3.93;;
11957;SDS011;6039;52.576;13.348;2022-09-17T04:38:17;9.63;;;3.30;;
11957;SDS011;6039;52.576;13.348;2022-09-17T04:43:21;12.37;;;4.30;;
11957;SDS011;6039;52.576;13.348;2022-09-17T04:48:26;15.00;;;4.43;;
11957;SDS011;6039;52.576;13.348;2022-09-17T04:53:33;17.20;;;4.70;;
11957;SDS011;6039;52.576;13.348;2022-09-17T04:58:37;10.77;;;3.87;;
11957;SDS011;6039;52.576;13.348;2022-09-17T05:03:41;15.07;;;4.27;;
11957;SDS011;6039;52.576;13.348;2022-09-17T05:08:48;12.73;;;3.80;;
11957;SDS011;6039;52.576;13.348;2022-09-17T05:13:52;15.63;;;4.20;;
11957;SDS011;6039;52.576;13.348;2022-09-17T05:18:57;10.30;;;3.70;;
11957;SDS011;6039;52.576;13.348;2022-09-17T05:24:04;12.83;;;3.83;;
11957;SDS011;6039;52.576;13.348;2022-09-17T05:29:08;15.07;;;3.93;;
11957;SDS011;6039;52.576;13.348;2022-09-17T05:34:12;13.93;;;4.40;;
11957;SDS011;6039;52.576;13.348;2022-09-17T05:39:19;9.80;;;3.27;;
11957;SDS011;6039;52.576;13.348;2022-09-17T05:44:24;11.27;;;3.33;;
11957;SDS011;6039;52.576;13.348;2022-09-17T05:49:28;11.43;;;3.77;;
11957;SDS011;6039;52.576;13.348;2022-09-17T05:54:35;11.40;;;3.40;;
11957;SDS011;6039;52.576;13.348;2022-09-17T05:59:42;8.83;;;3.43;;
11957;SDS011;6039;52.576;13.348;2022-09-17T06:04:46;9.23;;;3.60;;
11957;SDS011;6039;52.576;13.348;2022-09-17T06:09:53;12.83;;;3.97;;
11957;SDS011;6039;52.576;13.348;2022-09-17T06:14:57;16.10;;;4.33;;
11957;SDS011;6039;52.576;13.348;2022-09-17T06:20:02;13.77;;;4.27;;
11957;SDS011;6039;52.576;13.348;2022-09-17T06:25:09;15.90;;;4.87;;
11957;SDS011;6039;52.576;13.348;2022-09-17T06:30:14;20.57;;;4.80;;
11957;SDS011;6039;52.576;13.348;2022-09-17T06:35:19;17.00;;;4.83;;
11957;SDS011;6039;52.576;13.348;2022-09-17T06:40:25;14.20;;;4.57;;
11957;SDS011;6039;52.576;13.348;2022-09-17T06:45:30;19.40;;;5.07;;
11957;SDS011;6039;52.576;13.348;2022-09-17T06:50:34;14.80;;;4.90;;
11957;SDS011;6039;52.576;13.348;2022-09-17T06:55:41;14.27;;;5.00;;
11957;SDS011;6039;52.576;13.348;2022-09-17T07:00:45;15.33;;;4.67;;
11957;SDS011;6039;52.576;13.348;2022-09-17T07:05:50;15.93;;;5.20;;
11957;SDS011;6039;52.576;13.348;2022-09-17T07:10:57;19.83;;;5.20;;
11957;SDS011;6039;52.576;13.348;2022-09-17T07:16:01;13.73;;;4.57;;
11957;SDS011;6039;52.576;13.348;2022-09-17T07:21:06;21.23;;;4.20;;
11957;SDS011;6039;52.576;13.348;2022-09-17T07:26:14;15.10;;;4.30;;
11957;SDS011;6039;52.576;13.348;2022-09-17T07:31:18;16.27;;;3.93;;
11957;SDS011;6039;52.576;13.348;2022-09-17T07:36:23;12.93;;;3.87;;
11957;SDS011;6039;52.576;13.348;2022-09-17T07:41:30;19.80;;;4.40;;
11957;SDS011;6039;52.576;13.348;2022-09-17T07:46:34;19.13;;;4.03;;
11957;SDS011;6039;52.576;13.348;2022-09-17T07:51:38;22.97;;;4.40;;
11957;SDS011;6039;52.576;13.348;2022-09-17T07:56:45;13.40;;;3.97;;
11957;SDS011;6039;52.576;13.348;2022-09-17T08:01:49;15.37;;;3.63;;
11957;SDS011;6039;52.576;13.348;2022-09-17T08:06:55;15.00;;;3.73;;
11957;SDS011;6039;52.576;13.348;2022-09-17T08:12:02;14.10;;;3.60;;
11957;SDS011;6039;52.576;13.348;2022-09-17T08:17:07;11.40;;;3.60;;
11957;SDS011;6039;52.576;13.348;2022-09-17T08:22:12;13.20;;;3.13;;
11957;SDS011;6039;52.576;13.348;2022-09-17T08:27:23;15.23;;;3.50;;
11957;SDS011;6039;52.576;13.348;2022-09-17T08:32:28;15.23;;;3.33;;
11957;SDS011;6039;52.576;13.348;2022-09-17T08:37:32;9.80;;;3.40;;
11957;SDS011;6039;52.576;13.348;2022-09-17T08:42:40;9.07;;;2.60;;
11957;SDS011;6039;52.576;13.348;2022-09-17T08:47:53;11.00;;;3.17;;
11957;SDS011;6039;52.576;13.348;2022-09-17T08:53:07;10.83;;;3.00;;
11957;SDS011;6039;52.576;13.348;2022-09-17T08:58:31;12.07;;;3.07;;
11957;SDS011;6039;52.576;13.348;2022-09-17T09:03:45;8.27;;;2.90;;
11957;SDS011;6039;52.576;13.348;2022-09-17T09:09:01;9.13;;;3.13;;
11957;SDS011;6039;52.576;13.348;2022-09-17T09:14:12;13.03;;;3.47;;
11957;SDS011;6039;52.576;13.348;2022-09-17T09:19:21;7.23;;;2.80;;
11957;SDS011;6039;52.576;13.348;2022-09-17T09:24:28;10.40;;;2.67;;
11957;SDS011;6039;52.576;13.348;2022-09-17T09:29:41;10.53;;;2.93;;
11957;SDS011;6039;52.576;13.348;2022-09-17T09:34:50;9.20;;;2.90;;
11957;SDS011;6039;52.576;13.348;2022-09-17T09:39:59;12.00;;;2.70;;
11957;SDS011;6039;52.576;13.348;2022-09-17T09:45:13;11.43;;;3.30;;
11957;SDS011;6039;52.576;13.348;2022-09-17T09:50:26;15.37;;;2.97;;
11957;SDS011;6039;52.576;13.348;2022-09-17T09:55:41;11.33;;;2.83;;
11957;SDS011;6039;52.576;13.348;2022-09-17T10:00:55;18.27;;;2.97;;
11957;SDS011;6039;52.576;13.348;2022-09-17T10:06:00;14.00;;;3.43;;
11957;SDS011;6039;52.576;13.348;2022-09-17T10:11:15;9.20;;;2.60;;
11957;SDS011;6039;52.576;13.348;2022-09-17T10:16:25;10.23;;;2.80;;
11957;SDS011;6039;52.576;13.348;2022-09-17T10:21:32;10.10;;;2.37;;
11957;SDS011;6039;52.576;13.348;2022-09-17T10:26:45;8.20;;;2.20;;
11957;SDS011;6039;52.576;13.348;2022-09-17T10:32:21;9.57;;;2.60;;
11957;SDS011;6039;52.576;13.348;2022-09-17T10:37:33;10.50;;;2.70;;
11957;SDS011;6039;52.576;13.348;2022-09-17T10:42:44;9.33;;;2.70;;
11957;SDS011;6039;52.576;13.348;2022-09-17T10:47:51;8.30;;;2.93;;
11957;SDS011;6039;52.576;13.348;2022-09-17T10:53:00;9.90;;;2.93;;
11957;SDS011;6039;52.576;13.348;2022-09-17T10:58:13;8.47;;;2.73;;
11957;SDS011;6039;52.576;13.348;2022-09-17T11:09:21;9.13;;;2.50;;
11957;SDS011;6039;52.576;13.348;2022-09-17T11:14:37;9.57;;;2.80;;
11957;SDS011;6039;52.576;13.348;2022-09-17T11:19:53;6.53;;;1.83;;
11957;SDS011;6039;52.576;13.348;2022-09-17T11:25:13;8.83;;;2.10;;
11957;SDS011;6039;52.576;13.348;2022-09-17T11:30:27;7.23;;;2.27;;
11957;SDS011;6039;52.576;13.348;2022-09-17T11:35:38;6.67;;;2.00;;
11957;SDS011;6039;52.576;13.348;2022-09-17T11:40:51;4.93;;;2.23;;
11957;SDS011;6039;52.576;13.348;2022-09-17T11:46:01;7.00;;;2.20;;
11957;SDS011;6039;52.576;13.348;2022-09-17T11:51:13;8.47;;;2.53;;
11957;SDS011;6039;52.576;13.348;2022-09-17T11:56:29;8.67;;;2.37;;
11957;SDS011;6039;52.576;13.348;2022-09-17T12:01:36;7.37;;;2.10;;
11957;SDS011;6039;52.576;13.348;2022-09-17T12:06:43;9.20;;;2.00;;
11957;SDS011;6039;52.576;13.348;2022-09-17T12:11:54;7.00;;;1.90;;
11957;SDS011;6039;52.576;13.348;2022-09-17T12:17:01;3.63;;;1.40;;
11957;SDS011;6039;52.576;13.348;2022-09-17T12:22:07;3.13;;;1.37;;
11957;SDS011;6039;52.576;13.348;2022-09-17T12:27:22;6.73;;;1.60;;
11957;SDS011;6039;52.576;13.348;2022-09-17T12:32:35;6.93;;;1.70;;
11957;SDS011;6039;52.576;13.348;2022-09-17T12:38:01;6.17;;;1.60;;
11957;SDS011;6039;52.576;13.348;2022-09-17T12:43:22;5.23;;;1.97;;
11957;SDS011;6039;52.576;13.348;2022-09-17T12:48:47;6.37;;;1.53;;
11957;SDS011;6039;52.576;13.348;2022-09-17T12:54:22;6.87;;;1.50;;
11957;SDS011;6039;52.576;13.348;2022-09-17T12:59:47;7.83;;;1.73;;
11957;SDS011;6039;52.576;13.348;2022-09-17T13:05:02;5.27;;;1.50;;
11957;SDS011;6039;52.576;13.348;2022-09-17T13:16:02;5.07;;;1.57;;
11957;SDS011;6039;52.576;13.348;2022-09-17T13:21:12;7.50;;;1.80;;
11957;SDS011;6039;52.576;13.348;2022-09-17T13:26:18;6.30;;;1.70;;
11957;SDS011;6039;52.576;13.348;2022-09-17T13:36:51;4.33;;;1.70;;
11957;SDS011;6039;52.576;13.348;2022-09-17T13:41:58;5.23;;;1.80;;
11957;SDS011;6039;52.576;13.348;2022-09-17T13:47:11;4.40;;;1.80;;
11957;SDS011;6039;52.576;13.348;2022-09-17T13:57:44;5.47;;;1.70;;
11957;SDS011;6039;52.576;13.348;2022-09-17T14:02:53;6.43;;;1.73;;
11957;SDS011;6039;52.576;13.348;2022-09-17T14:08:09;4.33;;;1.70;;
11957;SDS011;6039;52.576;13.348;2022-09-17T14:18:57;4.07;;;1.60;;
11957;SDS011;6039;52.576;13.348;2022-09-17T14:24:14;8.10;;;1.93;;
11957;SDS011;6039;52.576;13.348;2022-09-17T14:29:26;7.20;;;1.80;;
11957;SDS011;6039;52.576;13.348;2022-09-17T14:34:38;5.23;;;1.80;;
11957;SDS011;6039;52.576;13.348;2022-09-17T14:39:42;5.63;;;1.43;;
11957;SDS011;6039;52.576;13.348;2022-09-17T14:44:48;2.33;;;1.10;;
11957;SDS011;6039;52.576;13.348;2022-09-17T14:50:15;3.40;;;1.20;;
11957;SDS011;6039;52.576;13.348;2022-09-17T14:55:24;23.17;;;1.50;;
11957;SDS011;6039;52.576;13.348;2022-09-17T15:00:32;4.60;;;0.90;;
11957;SDS011;6039;52.576;13.348;2022-09-17T15:05:46;2.40;;;1.10;;
11957;SDS011;6039;52.576;13.348;2022-09-17T15:10:51;1.70;;;0.70;;
11957;SDS011;6039;52.576;13.348;2022-09-17T15:15:58;2.63;;;0.70;;
11957;SDS011;6039;52.576;13.348;2022-09-17T15:21:09;3.13;;;0.70;;
11957;SDS011;6039;52.576;13.348;2022-09-17T15:26:21;2.10;;;0.90;;
11957;SDS011;6039;52.576;13.348;2022-09-17T15:31:27;1.17;;;0.63;;
11957;SDS011;6039;52.576;13.348;2022-09-17T15:36:34;1.47;;;0.80;;
11957;SDS011;6039;52.576;13.348;2022-09-17T15:41:39;1.27;;;0.67;;
11957;SDS011;6039;52.576;13.348;2022-09-17T15:46:43;4.50;;;0.90;;
11957;SDS011;6039;52.576;13.348;2022-09-17T15:51:50;3.90;;;0.93;;
11957;SDS011;6039;52.576;13.348;2022-09-17T15:56:55;1.60;;;1.00;;
11957;SDS011;6039;52.576;13.348;2022-09-17T16:02:01;2.97;;;0.90;;
11957;SDS011;6039;52.576;13.348;2022-09-17T16:12:33;3.70;;;1.30;;
11957;SDS011;6039;52.576;13.348;2022-09-17T16:17:41;2.30;;;1.00;;
11957;SDS011;6039;52.576;13.348;2022-09-17T16:22:49;2.20;;;1.10;;
11957;SDS011;6039;52.576;13.348;2022-09-17T16:27:55;2.03;;;0.90;;
11957;SDS011;6039;52.576;13.348;2022-09-17T16:33:01;1.97;;;1.00;;
11957;SDS011;6039;52.576;13.348;2022-09-17T16:38:09;3.93;;;1.10;;
11957;SDS011;6039;52.576;13.348;2022-09-17T16:43:14;3.30;;;1.10;;
11957;SDS011;6039;52.576;13.348;2022-09-17T16:48:18;5.27;;;1.27;;
11957;SDS011;6039;52.576;13.348;2022-09-17T16:53:25;1.10;;;0.70;;
11957;SDS011;6039;52.576;13.348;2022-09-17T16:58:29;2.37;;;1.17;;
11957;SDS011;6039;52.576;13.348;2022-09-17T17:03:33;4.40;;;1.40;;
11957;SDS011;6039;52.576;13.348;2022-09-17T17:08:40;3.13;;;1.50;;
11957;SDS011;6039;52.576;13.348;2022-09-17T17:13:44;2.60;;;1.30;;
11957;SDS011;6039;52.576;13.348;2022-09-17T17:18:48;5.73;;;1.37;;
11957;SDS011;6039;52.576;13.348;2022-09-17T17:23:56;1.97;;;1.03;;
11957;SDS011;6039;52.576;13.348;2022-09-17T17:29:00;2.30;;;1.30;;
11957;SDS011;6039;52.576;13.348;2022-09-17T17:34:05;3.53;;;1.30;;
11957;SDS011;6039;52.576;13.348;2022-09-17T17:39:12;2.90;;;1.10;;
11957;SDS011;6039;52.576;13.348;2022-09-17T17:44:16;4.03;;;1.47;;
11957;SDS011;6039;52.576;13.348;2022-09-17T17:49:20;3.33;;;1.10;;
11957;SDS011;6039;52.576;13.348;2022-09-17T17:54:27;3.73;;;1.40;;
11957;SDS011;6039;52.576;13.348;2022-09-17T17:59:32;2.47;;;1.30;;
11957;SDS011;6039;52.576;13.348;2022-09-17T18:04:36;3.10;;;1.30;;
11957;SDS011;6039;52.576;13.348;2022-09-17T18:09:43;2.93;;;1.13;;
11957;SDS011;6039;52.576;13.348;2022-09-17T18:14:47;4.83;;;1.60;;
11957;SDS011;6039;52.576;13.348;2022-09-17T18:19:53;3.77;;;1.60;;
11957;SDS011;6039;52.576;13.348;2022-09-17T18:25:00;4.40;;;1.80;;
11957;SDS011;6039;52.576;13.348;2022-09-17T18:30:05;5.30;;;1.80;;
11957;SDS011;6039;52.576;13.348;2022-09-17T18:35:10;3.10;;;1.40;;
11957;SDS011;6039;52.576;13.348;2022-09-17T18:40:21;3.57;;;1.67;;
11957;SDS011;6039;52.576;13.348;2022-09-17T18:45:26;2.10;;;1.37;;
11957;SDS011;6039;52.576;13.348;2022-09-17T18:50:31;3.33;;;1.27;;
11957;SDS011;6039;52.576;13.348;2022-09-17T18:55:37;5.43;;;1.40;;
11957;SDS011;6039;52.576;13.348;2022-09-17T19:00:42;3.03;;;1.40;;
11957;SDS011;6039;52.576;13.348;2022-09-17T19:05:46;2.97;;;1.30;;
11957;SDS011;6039;52.576;13.348;2022-09-17T19:10:52;2.40;;;1.50;;
11957;SDS011;6039;52.576;13.348;2022-09-17T19:15:57;5.03;;;1.33;;
11957;SDS011;6039;52.576;13.348;2022-09-17T19:21:03;2.63;;;1.27;;
11957;SDS011;6039;52.576;13.348;2022-09-17T19:26:11;2.13;;;1.27;;
11957;SDS011;6039;52.576;13.348;2022-09-17T19:31:16;2.63;;;1.40;;
11957;SDS011;6039;52.576;13.348;2022-09-17T19:36:21;3.40;;;1.50;;
11957;SDS011;6039;52.576;13.348;2022-09-17T19:41:27;4.07;;;1.30;;
11957;SDS011;6039;52.576;13.348;2022-09-17T19:46:35;4.20;;;1.73;;
11957;SDS011;6039;52.576;13.348;2022-09-17T19:51:39;4.80;;;1.90;;
11957;SDS011;6039;52.576;13.348;2022-09-17T19:56:46;4.00;;;1.60;;
11957;SDS011;6039;52.576;13.348;2022-09-17T20:01:50;3.77;;;1.60;;
11957;SDS011;6039;52.576;13.348;2022-09-17T20:06:54;3.93;;;1.90;;
11957;SDS011;6039;52.576;13.348;2022-09-17T20:12:06;5.93;;;1.70;;
11957;SDS011;6039;52.576;13.348;2022-09-17T20:17:10;3.60;;;1.90;;
11957;SDS011;6039;52.576;13.348;2022-09-17T20:22:14;4.47;;;1.97;;
11957;SDS011;6039;52.576;13.348;2022-09-17T20:27:21;3.50;;;1.87;;
11957;SDS011;6039;52.576;13.348;2022-09-17T20:32:26;2.83;;;1.93;;
11957;SDS011;6039;52.576;13.348;2022-09-17T20:37:30;3.47;;;1.87;;
11957;SDS011;6039;52.576;13.348;2022-09-17T20:42:37;6.60;;;1.87;;
11957;SDS011;6039;52.576;13.348;2022-09-17T20:47:41;4.33;;;1.90;;
11957;SDS011;6039;52.576;13.348;2022-09-17T20:52:45;3.50;;;1.60;;
11957;SDS011;6039;52.576;13.348;2022-09-17T20:57:52;6.17;;;2.50;;
11957;SDS011;6039;52.576;13.348;2022-09-17T21:02:57;5.40;;;2.40;;
11957;SDS011;6039;52.576;13.348;2022-09-17T21:08:01;6.53;;;2.57;;
11957;SDS011;6039;52.576;13.348;2022-09-17T21:13:08;5.90;;;2.37;;
11957;SDS011;6039;52.576;13.348;2022-09-17T21:18:13;8.67;;;2.90;;
11957;SDS011;6039;52.576;13.348;2022-09-17T21:23:21;5.93;;;2.60;;
11957;SDS011;6039;52.576;13.348;2022-09-17T21:28:31;6.50;;;2.50;;
11957;SDS011;6039;52.576;13.348;2022-09-17T21:33:36;7.10;;;2.57;;
11957;SDS011;6039;52.576;13.348;2022-09-17T21:38:41;6.50;;;2.47;;
11957;SDS011;6039;52.576;13.348;2022-09-17T21:43:49;8.33;;;2.80;;
11957;SDS011;6039;52.576;13.348;2022-09-17T21:48:54;5.17;;;2.10;;
11957;SDS011;6039;52.576;13.348;2022-09-17T21:54:02;7.00;;;2.60;;
11957;SDS011;6039;52.576;13.348;2022-09-17T21:59:10;5.07;;;2.50;;
11957;SDS011;6039;52.576;13.348;2022-09-17T22:04:16;5.50;;;2.53;;
11957;SDS011;6039;52.576;13.348;2022-09-17T22:09:23;4.30;;;2.27;;
11957;SDS011;6039;52.576;13.348;2022-09-17T22:14:31;5.90;;;2.50;;
11957;SDS011;6039;52.576;13.348;2022-09-17T22:19:35;5.50;;;2.47;;
11957;SDS011;6039;52.576;13.348;2022-09-17T22:24:40;4.10;;;2.17;;
11957;SDS011;6039;52.576;13.348;2022-09-17T22:29:47;7.43;;;2.57;;
11957;SDS011;6039;52.576;13.348;2022-09-17T22:34:51;3.53;;;2.37;;
11957;SDS011;6039;52.576;13.348;2022-09-17T22:39:55;3.37;;;2.13;;
11957;SDS011;6039;52.576;13.348;2022-09-17T22:45:02;5.40;;;2.60;;
11957;SDS011;6039;52.576;13.348;2022-09-17T22:50:08;5.30;;;2.40;;
11957;SDS011;6039;52.576;13.348;2022-09-17T22:55:12;6.20;;;2.67;;
11957;SDS011;6039;52.576;13.348;2022-09-17T23:00:19;5.77;;;2.63;;
11957;SDS011;6039;52.576;13.348;2022-09-17T23:05:23;5.07;;;2.90;;
11957;SDS011;6039;52.576;13.348;2022-09-17T23:10:27;5.53;;;2.50;;
11957;SDS011;6039;52.576;13.348;2022-09-17T23:15:34;4.73;;;3.30;;
11957;SDS011;6039;52.576;13.348;2022-09-17T23:20:38;5.80;;;2.97;;
11957;SDS011;6039;52.576;13.348;2022-09-17T23:25:42;7.80;;;3.10;;
11957;SDS011;6039;52.576;13.348;2022-09-17T23:30:49;4.63;;;2.57;;
11957;SDS011;6039;52.576;13.348;2022-09-17T23:35:53;5.00;;;2.37;;
11957;SDS011;6039;52.576;13.348;2022-09-17T23:41:05;4.20;;;2.67;;
11957;SDS011;6039;52.576;13.348;2022-09-17T23:46:13;5.60;;;2.90;;
11957;SDS011;6039;52.576;13.348;2022-09-17T23:51:18;4.70;;;2.30;;
11957;SDS011;6039;52.576;13.348;2022-09-17T23:56:24;4.30;;;2.47;;
